Time;durP1;ratioP1;P1;durP2;ratioP2;P2;SDS_P1;SDS_P2;PMS_P1;PMS_P2;Temp;Humidity;BMP_temperature;BMP_pressure;BME280_temperature;BME280_humidity;BME280_pressure;Samples;Min_cycle;Max_cycle;Signal;HPM_P1;HPM_P2
2023/03/23 00:00:05;;;;;;;5.93;4.47;;;;;;;;;;5059750;28;20061;-59
2023/03/23 00:02:35;;;;;;;5.20;4.25;;;;;;;;;;5075649;28;20044;-61
2023/03/23 00:05:04;;;;;;;9.27;4.50;;;;;;;;;;5059993;28;20049;-60
2023/03/23 00:07:29;;;;;;;10.38;4.90;;;;;;;;;;5072721;28;20507;-59
2023/03/23 00:09:55;;;;;;;10.23;4.55;;;;;;;;;;5060926;28;20057;-60
2023/03/23 00:12:33;;;;;;;9.93;4.10;;;;;;;;;;5071903;28;20456;-61
2023/03/23 00:15:00;;;;;;;10.93;4.47;;;;;;;;;;5062062;28;20417;-60
2023/03/23 00:17:25;;;;;;;7.63;4.05;;;;;;;;;;5056157;28;20053;-60
2023/03/23 00:19:51;;;;;;;9.45;4.15;;;;;;;;;;5045249;28;20265;-60
2023/03/23 00:22:16;;;;;;;10.05;4.68;;;;;;;;;;5059326;28;20618;-61
2023/03/23 00:24:42;;;;;;;5.25;3.63;;;;;;;;;;5067538;28;20051;-60
2023/03/23 00:27:08;;;;;;;9.38;4.63;;;;;;;;;;5070476;28;20053;-61
2023/03/23 00:29:34;;;;;;;6.28;4.18;;;;;;;;;;5054143;28;20854;-60
2023/03/23 00:31:59;;;;;;;5.38;3.63;;;;;;;;;;5057822;28;20152;-60
2023/03/23 00:34:25;;;;;;;7.78;4.10;;;;;;;;;;5062865;28;20152;-60
2023/03/23 00:36:53;;;;;;;6.05;3.85;;;;;;;;;;5074816;28;20106;-60
2023/03/23 00:39:18;;;;;;;7.57;4.07;;;;;;;;;;5076287;28;20463;-60
2023/03/23 00:41:44;;;;;;;6.38;3.53;;;;;;;;;;5086222;28;20037;-60
2023/03/23 00:44:09;;;;;;;8.13;3.80;;;;;;;;;;5059450;28;20045;-60
2023/03/23 00:46:44;;;;;;;7.45;4.18;;;;;;;;;;5074081;28;20594;-61
2023/03/23 00:49:09;;;;;;;4.53;3.83;;;;;;;;;;5064761;28;20575;-60
2023/03/23 00:51:35;;;;;;;4.53;3.17;;;;;;;;;;5057388;28;20060;-60
2023/03/23 00:54:00;;;;;;;8.32;4.03;;;;;;;;;;5062839;28;20052;-59
2023/03/23 00:56:26;;;;;;;6.40;3.88;;;;;;;;;;5065851;28;20048;-60
2023/03/23 00:58:51;;;;;;;4.82;3.00;;;;;;;;;;5056889;28;20492;-61
2023/03/23 01:01:16;;;;;;;7.22;3.63;;;;;;;;;;5045568;28;20136;-61
2023/03/23 01:03:42;;;;;;;5.88;2.75;;;;;;;;;;5059563;28;20503;-60
2023/03/23 01:06:12;;;;;;;5.32;3.20;;;;;;;;;;5054119;28;20048;-60
2023/03/23 01:08:39;;;;;;;5.10;3.05;;;;;;;;;;5059538;28;20053;-59
2023/03/23 01:11:05;;;;;;;4.03;2.50;;;;;;;;;;5055040;28;20060;-60
2023/03/23 01:13:30;;;;;;;5.78;3.60;;;;;;;;;;5062583;28;20952;-60
2023/03/23 01:15:56;;;;;;;6.40;3.22;;;;;;;;;;5061920;28;20119;-60
2023/03/23 01:18:21;;;;;;;6.50;3.20;;;;;;;;;;5052668;28;20083;-60
2023/03/23 01:20:46;;;;;;;6.38;3.13;;;;;;;;;;5058404;28;20112;-60
2023/03/23 01:23:11;;;;;;;5.18;3.22;;;;;;;;;;5062165;28;20148;-60
2023/03/23 01:25:37;;;;;;;7.45;3.72;;;;;;;;;;5062405;28;20061;-60
2023/03/23 01:28:03;;;;;;;5.88;2.95;;;;;;;;;;5063306;28;20134;-60
2023/03/23 01:30:28;;;;;;;5.28;3.08;;;;;;;;;;5049292;28;20056;-60
2023/03/23 01:32:54;;;;;;;4.28;2.90;;;;;;;;;;5059092;28;20065;-60
2023/03/23 01:35:19;;;;;;;5.18;3.10;;;;;;;;;;5050581;28;20586;-60
2023/03/23 01:37:44;;;;;;;5.72;2.92;;;;;;;;;;5063817;28;20080;-60
2023/03/23 01:40:10;;;;;;;3.42;2.90;;;;;;;;;;5077178;28;20102;-60
2023/03/23 01:42:37;;;;;;;5.15;2.90;;;;;;;;;;5065204;28;20083;-60
2023/03/23 01:45:22;;;;;;;4.22;2.85;;;;;;;;;;5058050;28;20049;-60
2023/03/23 01:47:59;;;;;;;4.63;2.97;;;;;;;;;;5062626;28;20108;-60
2023/03/23 01:50:26;;;;;;;11.13;3.03;;;;;;;;;;5071167;28;20340;-59
2023/03/23 01:52:53;;;;;;;3.40;2.75;;;;;;;;;;5078869;28;20046;-60
2023/03/23 01:55:18;;;;;;;3.42;2.58;;;;;;;;;;5055513;28;20054;-61
2023/03/23 01:57:44;;;;;;;3.15;2.70;;;;;;;;;;5065319;28;20072;-60
2023/03/23 02:00:14;;;;;;;4.28;2.67;;;;;;;;;;5059333;28;20109;-60
2023/03/23 02:02:41;;;;;;;5.05;3.05;;;;;;;;;;5065611;28;20081;-60
2023/03/23 02:05:09;;;;;;;3.83;2.72;;;;;;;;;;5044628;28;20135;-60
2023/03/23 02:07:34;;;;;;;3.20;2.70;;;;;;;;;;5045441;28;20063;-60
2023/03/23 02:10:00;;;;;;;4.53;2.75;;;;;;;;;;5076316;28;20059;-60
2023/03/23 02:12:25;;;;;;;5.88;3.08;;;;;;;;;;5062316;28;20556;-59
2023/03/23 02:14:51;;;;;;;5.50;3.25;;;;;;;;;;5067328;28;20407;-59
2023/03/23 02:17:22;;;;;;;6.03;2.95;;;;;;;;;;5068810;28;20068;-61
2023/03/23 02:20:04;;;;;;;5.47;2.92;;;;;;;;;;5058562;28;20121;-59
2023/03/23 02:23:04;;;;;;;5.05;2.80;;;;;;;;;;5065821;28;20541;-60
2023/03/23 02:25:55;;;;;;;4.65;2.78;;;;;;;;;;4974477;28;20146;-60
2023/03/23 02:28:38;;;;;;;4.18;2.63;;;;;;;;;;4968489;28;20063;-60
2023/03/23 02:31:22;;;;;;;4.32;2.80;;;;;;;;;;4981857;28;20075;-61
2023/03/23 02:33:55;;;;;;;5.53;3.20;;;;;;;;;;4969487;28;20055;-60
2023/03/23 02:36:33;;;;;;;6.93;2.67;;;;;;;;;;4959209;28;20059;-60
2023/03/23 02:39:18;;;;;;;3.30;2.75;;;;;;;;;;4978031;28;20051;-60
2023/03/23 02:41:56;;;;;;;4.20;2.90;;;;;;;;;;4983431;28;20509;-60
2023/03/23 02:44:23;;;;;;;5.65;3.22;;;;;;;;;;4983734;28;20050;-61
2023/03/23 02:46:48;;;;;;;5.72;3.08;;;;;;;;;;4984127;28;20540;-60
2023/03/23 02:49:15;;;;;;;5.00;2.95;;;;;;;;;;4984779;28;20057;-60
2023/03/23 02:51:42;;;;;;;4.07;2.60;;;;;;;;;;4984400;28;20043;-61
2023/03/23 02:54:07;;;;;;;4.35;3.15;;;;;;;;;;4965047;28;20059;-61
2023/03/23 02:56:33;;;;;;;5.72;2.83;;;;;;;;;;4969434;28;20058;-60
2023/03/23 02:58:59;;;;;;;7.85;3.40;;;;;;;;;;4995516;28;20142;-60
2023/03/23 03:01:35;;;;;;;4.88;3.05;;;;;;;;;;5065718;28;20516;-61
2023/03/23 03:04:03;;;;;;;8.38;3.35;;;;;;;;;;5071157;28;20053;-60
2023/03/23 03:06:36;;;;;;;4.35;3.03;;;;;;;;;;5056076;28;20096;-62
2023/03/23 03:09:06;;;;;;;5.20;2.97;;;;;;;;;;5048965;28;20057;-62
2023/03/23 03:11:32;;;;;;;5.22;3.00;;;;;;;;;;5067606;28;20655;-61
2023/03/23 03:14:00;;;;;;;4.78;2.50;;;;;;;;;;5052141;28;20053;-60
2023/03/23 03:16:35;;;;;;;6.70;3.10;;;;;;;;;;5047332;28;20120;-62
2023/03/23 03:19:03;;;;;;;4.18;2.97;;;;;;;;;;5057021;28;20055;-61
2023/03/23 03:21:31;;;;;;;4.32;2.60;;;;;;;;;;5061538;28;20059;-60
2023/03/23 03:23:58;;;;;;;3.42;2.72;;;;;;;;;;5061382;28;20077;-60
2023/03/23 03:26:26;;;;;;;5.53;2.58;;;;;;;;;;5046388;28;20050;-60
2023/03/23 03:28:52;;;;;;;5.82;2.53;;;;;;;;;;5059526;28;21001;-61
2023/03/23 03:31:19;;;;;;;4.30;2.33;;;;;;;;;;5064885;28;20076;-61
2023/03/23 03:33:45;;;;;;;5.22;2.72;;;;;;;;;;5052321;28;20049;-60
2023/03/23 03:36:15;;;;;;;6.75;3.00;;;;;;;;;;5052579;28;20060;-61
2023/03/23 03:38:44;;;;;;;3.92;2.22;;;;;;;;;;5058010;28;20115;-60
2023/03/23 03:41:10;;;;;;;5.20;2.55;;;;;;;;;;5044974;28;20085;-60
2023/03/23 03:43:35;;;;;;;5.88;2.08;;;;;;;;;;5064870;28;20049;-60
2023/03/23 03:46:01;;;;;;;7.32;2.25;;;;;;;;;;5079522;28;20499;-61
2023/03/23 03:48:26;;;;;;;3.20;1.90;;;;;;;;;;5067303;28;20041;-59
2023/03/23 03:50:52;;;;;;;3.80;2.10;;;;;;;;;;5065297;28;20136;-62
2023/03/23 03:53:17;;;;;;;3.90;1.80;;;;;;;;;;5055179;28;20719;-60
2023/03/23 03:55:48;;;;;;;6.43;1.92;;;;;;;;;;5063546;28;20049;-60
2023/03/23 03:58:14;;;;;;;4.78;1.83;;;;;;;;;;5066620;28;20048;-60
2023/03/23 04:00:39;;;;;;;3.90;1.75;;;;;;;;;;5064975;28;20065;-61
2023/03/23 04:03:05;;;;;;;4.13;1.75;;;;;;;;;;5064376;28;20074;-60
2023/03/23 04:05:30;;;;;;;5.50;2.03;;;;;;;;;;5063112;28;20049;-61
2023/03/23 04:08:01;;;;;;;2.10;1.48;;;;;;;;;;5075546;28;20597;-60
2023/03/23 04:10:27;;;;;;;9.65;2.38;;;;;;;;;;5069911;28;20049;-60
2023/03/23 04:12:54;;;;;;;2.58;1.42;;;;;;;;;;5051138;28;20056;-60
2023/03/23 04:15:20;;;;;;;3.63;1.98;;;;;;;;;;5063775;28;20698;-60
2023/03/23 04:17:45;;;;;;;3.88;2.05;;;;;;;;;;5056807;28;20050;-60
2023/03/23 04:20:17;;;;;;;4.20;1.92;;;;;;;;;;5065854;28;20222;-59
2023/03/23 04:22:43;;;;;;;4.07;1.70;;;;;;;;;;5059915;28;20092;-60
2023/03/23 04:25:10;;;;;;;3.38;1.65;;;;;;;;;;5044779;28;20052;-61
2023/03/23 04:27:36;;;;;;;2.92;1.83;;;;;;;;;;5045027;28;20593;-61
2023/03/23 04:30:02;;;;;;;4.70;1.60;;;;;;;;;;5051121;28;20045;-62
2023/03/23 04:32:30;;;;;;;4.10;1.60;;;;;;;;;;5061888;28;20056;-62
2023/03/23 04:34:57;;;;;;;5.68;2.03;;;;;;;;;;5050647;28;20115;-62
2023/03/23 04:37:25;;;;;;;2.97;1.70;;;;;;;;;;5046020;28;20116;-62
2023/03/23 04:39:59;;;;;;;6.35;1.67;;;;;;;;;;5059573;28;20496;-61
2023/03/23 04:42:25;;;;;;;10.93;2.97;;;;;;;;;;5067980;28;20593;-61
2023/03/23 04:44:54;;;;;;;6.63;1.90;;;;;;;;;;5058797;28;20057;-60
2023/03/23 04:47:19;;;;;;;8.73;1.70;;;;;;;;;;5050573;28;20049;-61
2023/03/23 04:49:44;;;;;;;4.65;1.58;;;;;;;;;;5065773;28;20537;-62
2023/03/23 04:52:10;;;;;;;2.75;1.58;;;;;;;;;;5066119;28;20513;-60
2023/03/23 04:54:35;;;;;;;7.47;1.67;;;;;;;;;;5063527;28;20053;-61
2023/03/23 04:57:00;;;;;;;5.13;1.60;;;;;;;;;;5049553;28;20141;-61
2023/03/23 04:59:27;;;;;;;4.78;1.38;;;;;;;;;;5052143;28;20063;-61
2023/03/23 05:01:53;;;;;;;9.95;2.00;;;;;;;;;;5062113;28;20061;-61
2023/03/23 05:04:18;;;;;;;6.75;1.70;;;;;;;;;;5064867;28;20105;-61
2023/03/23 05:06:45;;;;;;;4.97;1.52;;;;;;;;;;5072480;28;20063;-62
2023/03/23 05:09:10;;;;;;;6.15;1.83;;;;;;;;;;5050269;28;20045;-60
2023/03/23 05:11:35;;;;;;;9.23;2.10;;;;;;;;;;5063785;28;20076;-60
2023/03/23 05:14:02;;;;;;;10.48;3.42;;;;;;;;;;5067358;28;20049;-60
2023/03/23 05:16:28;;;;;;;6.82;2.35;;;;;;;;;;5065048;28;20057;-60
2023/03/23 05:18:57;;;;;;;7.60;2.72;;;;;;;;;;5045714;28;20053;-60
2023/03/23 05:21:22;;;;;;;6.00;1.33;;;;;;;;;;5047849;28;20053;-61
2023/03/23 05:23:54;;;;;;;6.03;1.98;;;;;;;;;;5056428;28;20049;-61
2023/03/23 05:26:19;;;;;;;9.43;2.00;;;;;;;;;;5065538;28;20641;-60
2023/03/23 05:28:45;;;;;;;6.93;1.95;;;;;;;;;;5045286;28;20049;-60
2023/03/23 05:31:10;;;;;;;13.02;3.15;;;;;;;;;;5044962;28;20107;-60
2023/03/23 05:33:36;;;;;;;10.27;1.83;;;;;;;;;;5057212;28;20053;-62
2023/03/23 05:36:04;;;;;;;12.02;2.58;;;;;;;;;;5049938;28;20056;-60
2023/03/23 05:38:30;;;;;;;5.25;1.60;;;;;;;;;;5064836;28;20340;-61
2023/03/23 05:40:59;;;;;;;6.22;1.90;;;;;;;;;;5065074;28;20080;-61
2023/03/23 05:43:25;;;;;;;8.23;1.60;;;;;;;;;;5062165;28;20511;-62
2023/03/23 05:45:50;;;;;;;5.95;1.85;;;;;;;;;;5055599;28;20045;-62
2023/03/23 05:48:16;;;;;;;5.40;2.03;;;;;;;;;;5057607;28;20045;-60
2023/03/23 05:50:41;;;;;;;12.93;2.78;;;;;;;;;;5059901;28;20407;-61
2023/03/23 05:53:06;;;;;;;7.25;1.65;;;;;;;;;;5065731;28;20322;-61
2023/03/23 05:55:33;;;;;;;9.63;2.20;;;;;;;;;;5060202;28;20049;-61
2023/03/23 05:57:58;;;;;;;4.05;1.83;;;;;;;;;;5066252;28;20136;-61
2023/03/23 06:00:24;;;;;;;9.50;2.47;;;;;;;;;;5067833;28;20060;-60
2023/03/23 06:02:50;;;;;;;16.90;2.78;;;;;;;;;;5062757;28;20037;-60
2023/03/23 06:05:16;;;;;;;25.38;4.45;;;;;;;;;;5046626;28;20042;-61
2023/03/23 06:07:42;;;;;;;22.23;5.20;;;;;;;;;;5047481;28;20069;-60
2023/03/23 06:10:08;;;;;;;14.70;2.85;;;;;;;;;;5051463;28;20053;-62
2023/03/23 06:12:34;;;;;;;10.02;3.33;;;;;;;;;;5065968;28;20103;-60
2023/03/23 06:15:00;;;;;;;7.53;2.63;;;;;;;;;;5064282;28;20090;-61
2023/03/23 06:17:26;;;;;;;11.95;3.03;;;;;;;;;;5084234;28;20171;-60
2023/03/23 06:19:51;;;;;;;9.57;2.47;;;;;;;;;;5054820;28;20529;-62
2023/03/23 06:22:17;;;;;;;9.80;2.95;;;;;;;;;;5066899;28;20153;-61
2023/03/23 06:24:42;;;;;;;8.00;2.15;;;;;;;;;;5066411;28;20518;-61
2023/03/23 06:27:08;;;;;;;8.07;2.72;;;;;;;;;;5065603;28;20132;-61
2023/03/23 06:29:34;;;;;;;7.82;2.50;;;;;;;;;;5061442;28;20049;-59
2023/03/23 06:32:02;;;;;;;8.98;2.17;;;;;;;;;;5069923;28;20069;-62
2023/03/23 06:34:27;;;;;;;7.75;2.40;;;;;;;;;;5076776;28;20060;-61
2023/03/23 06:36:53;;;;;;;7.95;2.50;;;;;;;;;;5079765;28;20521;-61
2023/03/23 06:39:18;;;;;;;6.25;2.40;;;;;;;;;;5066755;28;20051;-60
2023/03/23 06:41:44;;;;;;;13.20;2.97;;;;;;;;;;5063945;28;20055;-61
2023/03/23 06:44:13;;;;;;;8.60;2.72;;;;;;;;;;5062328;28;20504;-60
2023/03/23 06:46:38;;;;;;;14.43;2.47;;;;;;;;;;5062244;28;20471;-60
2023/03/23 06:49:03;;;;;;;6.50;2.17;;;;;;;;;;5059891;28;20060;-60
2023/03/23 06:51:28;;;;;;;8.57;2.58;;;;;;;;;;5070645;28;20753;-61
2023/03/23 06:53:54;;;;;;;11.40;2.80;;;;;;;;;;5062794;28;20045;-60
2023/03/23 06:56:20;;;;;;;6.50;2.78;;;;;;;;;;5056531;28;20211;-61
2023/03/23 06:58:45;;;;;;;8.10;3.40;;;;;;;;;;5067921;28;20071;-61
2023/03/23 07:01:11;;;;;;;10.70;2.95;;;;;;;;;;5063076;28;20053;-61
2023/03/23 07:03:36;;;;;;;5.35;2.30;;;;;;;;;;5069589;28;20517;-62
2023/03/23 07:06:03;;;;;;;8.50;2.95;;;;;;;;;;5062895;28;20045;-61
2023/03/23 07:08:28;;;;;;;8.20;2.70;;;;;;;;;;5050560;28;20049;-62
2023/03/23 07:10:54;;;;;;;12.00;2.90;;;;;;;;;;5072974;28;20048;-61
2023/03/23 07:13:20;;;;;;;7.30;3.03;;;;;;;;;;5078998;28;20568;-61
2023/03/23 07:15:45;;;;;;;10.00;2.53;;;;;;;;;;5063707;28;20510;-60
2023/03/23 07:18:10;;;;;;;8.90;3.15;;;;;;;;;;5062896;28;20658;-62
2023/03/23 07:20:37;;;;;;;10.27;2.60;;;;;;;;;;5052963;28;20053;-61
2023/03/23 07:23:02;;;;;;;7.60;2.50;;;;;;;;;;5042898;28;20127;-62
2023/03/23 07:25:27;;;;;;;7.00;2.45;;;;;;;;;;5049427;28;20601;-62
2023/03/23 07:27:53;;;;;;;8.75;2.70;;;;;;;;;;5056875;28;20428;-60
2023/03/23 07:30:18;;;;;;;8.32;2.80;;;;;;;;;;5052231;28;20164;-61
2023/03/23 07:32:44;;;;;;;7.75;3.03;;;;;;;;;;5063026;28;20057;-62
2023/03/23 07:35:09;;;;;;;7.53;2.50;;;;;;;;;;5057851;28;20083;-61
2023/03/23 07:37:35;;;;;;;12.75;3.30;;;;;;;;;;5068574;28;20160;-60
2023/03/23 07:40:14;;;;;;;11.10;2.90;;;;;;;;;;5062191;28;20053;-60
2023/03/23 07:42:39;;;;;;;13.45;3.35;;;;;;;;;;5064780;28;20057;-61
2023/03/23 07:45:05;;;;;;;13.68;3.00;;;;;;;;;;5075663;28;20048;-60
2023/03/23 07:47:31;;;;;;;5.78;2.55;;;;;;;;;;5055944;28;20057;-61
2023/03/23 07:49:56;;;;;;;7.53;2.25;;;;;;;;;;5061724;28;20049;-60
2023/03/23 07:52:21;;;;;;;9.18;2.53;;;;;;;;;;5059726;28;20087;-61
2023/03/23 07:54:47;;;;;;;7.38;3.40;;;;;;;;;;5053431;28;20438;-60
2023/03/23 07:57:12;;;;;;;8.10;2.75;;;;;;;;;;5062669;28;20118;-59
2023/03/23 07:59:37;;;;;;;9.65;2.10;;;;;;;;;;5059625;28;20096;-61
2023/03/23 08:02:03;;;;;;;7.53;2.92;;;;;;;;;;5055232;28;20052;-60
2023/03/23 08:04:29;;;;;;;7.03;2.63;;;;;;;;;;5069767;28;20220;-60
2023/03/23 08:06:54;;;;;;;9.95;2.50;;;;;;;;;;5062253;28;20045;-60
2023/03/23 08:09:19;;;;;;;8.90;2.78;;;;;;;;;;5078962;28;20143;-60
2023/03/23 08:11:45;;;;;;;7.15;2.50;;;;;;;;;;5058227;28;20455;-60
2023/03/23 08:14:11;;;;;;;8.57;2.08;;;;;;;;;;5048600;28;20065;-61
2023/03/23 08:16:36;;;;;;;10.23;2.40;;;;;;;;;;5056253;28;20092;-61
2023/03/23 08:19:02;;;;;;;15.55;3.75;;;;;;;;;;5056965;28;20415;-60
2023/03/23 08:21:28;;;;;;;6.75;2.67;;;;;;;;;;5053166;28;20053;-61
2023/03/23 08:23:53;;;;;;;13.50;2.50;;;;;;;;;;5071548;28;20094;-60
2023/03/23 08:26:19;;;;;;;4.55;2.10;;;;;;;;;;5083837;28;20114;-60
2023/03/23 08:28:44;;;;;;;10.75;3.55;;;;;;;;;;5082475;28;20060;-62
2023/03/23 08:31:11;;;;;;;8.57;2.92;;;;;;;;;;5060841;28;20057;-60
2023/03/23 08:33:37;;;;;;;11.75;2.72;;;;;;;;;;5062618;28;20447;-60
2023/03/23 08:36:03;;;;;;;8.95;2.58;;;;;;;;;;5062629;28;20053;-62
2023/03/23 08:38:28;;;;;;;7.20;2.53;;;;;;;;;;5062963;28;20053;-60
2023/03/23 08:41:02;;;;;;;6.00;2.45;;;;;;;;;;5062307;28;20053;-61
2023/03/23 08:43:27;;;;;;;8.88;2.60;;;;;;;;;;5063051;28;20613;-60
2023/03/23 08:45:53;;;;;;;5.18;2.47;;;;;;;;;;5065578;28;20053;-60
2023/03/23 08:48:18;;;;;;;11.48;2.92;;;;;;;;;;5060735;28;20119;-61
2023/03/23 08:50:44;;;;;;;8.98;3.17;;;;;;;;;;5063460;28;20503;-60
2023/03/23 08:53:09;;;;;;;4.80;2.33;;;;;;;;;;5083366;28;20065;-60
2023/03/23 08:55:35;;;;;;;10.68;2.58;;;;;;;;;;5079544;28;20433;-60
2023/03/23 08:58:01;;;;;;;16.23;3.05;;;;;;;;;;5062987;28;20063;-59
2023/03/23 09:00:27;;;;;;;7.28;2.65;;;;;;;;;;5061758;28;20059;-61
2023/03/23 09:02:53;;;;;;;5.13;2.22;;;;;;;;;;5064562;28;20553;-60
2023/03/23 09:05:21;;;;;;;7.72;2.38;;;;;;;;;;5066762;28;20052;-61
2023/03/23 09:07:47;;;;;;;6.28;2.15;;;;;;;;;;5081746;28;20040;-60
2023/03/23 09:10:13;;;;;;;10.75;3.28;;;;;;;;;;5053635;28;20057;-61
2023/03/23 09:12:39;;;;;;;7.57;2.65;;;;;;;;;;5069358;28;20045;-60
2023/03/23 09:15:08;;;;;;;8.45;2.60;;;;;;;;;;5072053;28;20052;-60
2023/03/23 09:17:35;;;;;;;5.40;2.20;;;;;;;;;;5069033;28;20550;-60
2023/03/23 09:20:00;;;;;;;8.45;3.83;;;;;;;;;;5066386;28;20080;-61
2023/03/23 09:22:26;;;;;;;12.00;2.78;;;;;;;;;;5061916;28;20144;-60
2023/03/23 09:24:51;;;;;;;13.00;2.88;;;;;;;;;;5061206;28;20064;-60
2023/03/23 09:27:17;;;;;;;10.07;2.72;;;;;;;;;;5063736;28;20076;-60
2023/03/23 09:29:44;;;;;;;6.30;1.95;;;;;;;;;;5070316;28;20057;-60
2023/03/23 09:32:09;;;;;;;10.32;2.88;;;;;;;;;;5080581;28;20055;-61
2023/03/23 09:34:35;;;;;;;5.10;1.88;;;;;;;;;;5075574;28;20523;-61
2023/03/23 09:37:04;;;;;;;9.88;2.30;;;;;;;;;;5044286;28;20076;-61
2023/03/23 09:39:30;;;;;;;11.02;2.42;;;;;;;;;;5060555;28;20041;-59
2023/03/23 09:42:14;;;;;;;9.98;2.65;;;;;;;;;;5060689;28;20053;-61
2023/03/23 09:44:46;;;;;;;10.02;2.20;;;;;;;;;;5078804;28;20491;-60
2023/03/23 09:47:23;;;;;;;8.57;2.45;;;;;;;;;;5070390;28;20041;-61
2023/03/23 09:49:48;;;;;;;11.95;2.47;;;;;;;;;;5051676;28;20051;-61
2023/03/23 09:52:15;;;;;;;13.50;2.75;;;;;;;;;;5062284;28;20527;-62
2023/03/23 09:54:42;;;;;;;7.85;1.77;;;;;;;;;;5056697;28;20144;-60
2023/03/23 09:57:16;;;;;;;11.55;2.50;;;;;;;;;;5079968;28;20052;-61
2023/03/23 10:00:05;;;;;;;13.10;3.72;;;;;;;;;;5078210;28;20526;-62
2023/03/23 10:02:36;;;;;;;9.15;1.70;;;;;;;;;;5062814;28;20140;-60
2023/03/23 10:05:17;;;;;;;11.05;2.35;;;;;;;;;;5058781;28;20066;-61
2023/03/23 10:07:43;;;;;;;10.82;3.10;;;;;;;;;;5079098;28;20056;-60
2023/03/23 10:10:12;;;;;;;14.52;2.90;;;;;;;;;;5082003;28;20041;-60
2023/03/23 10:12:51;;;;;;;14.70;2.50;;;;;;;;;;5062240;28;20057;-60
2023/03/23 10:15:19;;;;;;;10.05;1.98;;;;;;;;;;5075548;28;20056;-61
2023/03/23 10:17:51;;;;;;;14.85;3.17;;;;;;;;;;5060814;28;20549;-60
2023/03/23 10:20:35;;;;;;;10.68;2.70;;;;;;;;;;5061109;28;20056;-61
2023/03/23 10:23:01;;;;;;;12.18;2.28;;;;;;;;;;5063545;28;21120;-61
2023/03/23 10:25:31;;;;;;;10.80;2.75;;;;;;;;;;5076811;28;20087;-60
2023/03/23 10:28:10;;;;;;;10.43;2.03;;;;;;;;;;5059480;28;20052;-59
2023/03/23 10:30:40;;;;;;;9.32;3.58;;;;;;;;;;5058082;28;20160;-62
2023/03/23 10:33:05;;;;;;;6.80;1.88;;;;;;;;;;5041772;28;20119;-62
2023/03/23 10:35:51;;;;;;;8.23;2.28;;;;;;;;;;5053068;28;20099;-61
2023/03/23 10:38:19;;;;;;;13.57;2.58;;;;;;;;;;5063729;28;20523;-60
2023/03/23 10:41:11;;;;;;;11.30;2.30;;;;;;;;;;5064710;28;20052;-59
2023/03/23 10:43:37;;;;;;;8.40;2.20;;;;;;;;;;5066393;28;20537;-60
2023/03/23 10:46:10;;;;;;;8.65;2.45;;;;;;;;;;5063860;28;20057;-61
2023/03/23 10:48:38;;;;;;;6.75;2.63;;;;;;;;;;5064067;28;20052;-61
2023/03/23 10:51:06;;;;;;;7.88;2.05;;;;;;;;;;5063946;28;20053;-60
2023/03/23 10:53:57;;;;;;;9.55;2.10;;;;;;;;;;5052216;28;20474;-61
2023/03/23 10:56:27;;;;;;;10.57;2.35;;;;;;;;;;5080180;28;20819;-60
2023/03/23 10:58:53;;;;;;;8.35;1.60;;;;;;;;;;5068346;28;20094;-61
2023/03/23 11:01:20;;;;;;;13.00;2.30;;;;;;;;;;5062726;28;20047;-62
2023/03/23 11:03:48;;;;;;;19.27;3.00;;;;;;;;;;5064487;28;20523;-61
2023/03/23 11:06:22;;;;;;;6.10;2.20;;;;;;;;;;5068834;28;20048;-61
2023/03/23 11:08:50;;;;;;;13.45;2.20;;;;;;;;;;5083674;28;20052;-61
2023/03/23 11:11:17;;;;;;;7.78;1.73;;;;;;;;;;5076193;28;20048;-62
2023/03/23 11:13:45;;;;;;;12.95;2.70;;;;;;;;;;5076863;28;20523;-61
2023/03/23 11:16:21;;;;;;;9.32;1.80;;;;;;;;;;5075998;28;20434;-61
2023/03/23 11:18:46;;;;;;;10.75;2.28;;;;;;;;;;5079208;28;20065;-60
2023/03/23 11:21:13;;;;;;;10.93;3.17;;;;;;;;;;5058278;28;20052;-61
2023/03/23 11:23:41;;;;;;;8.98;2.40;;;;;;;;;;5047390;28;20080;-61
2023/03/23 11:26:15;;;;;;;9.52;2.00;;;;;;;;;;5073904;28;20490;-61
2023/03/23 11:28:46;;;;;;;8.32;2.45;;;;;;;;;;5068337;28;20046;-61
2023/03/23 11:31:12;;;;;;;8.30;2.30;;;;;;;;;;5078596;28;20060;-61
2023/03/23 11:33:47;;;;;;;7.60;1.90;;;;;;;;;;5071222;28;20049;-61
2023/03/23 11:36:13;;;;;;;9.00;1.95;;;;;;;;;;5043309;28;20088;-62
2023/03/23 11:38:38;;;;;;;7.95;2.38;;;;;;;;;;5063099;28;20080;-62
2023/03/23 11:41:08;;;;;;;10.48;2.33;;;;;;;;;;5080084;28;20128;-61
2023/03/23 11:43:34;;;;;;;10.18;2.33;;;;;;;;;;5073431;28;20052;-61
2023/03/23 11:46:09;;;;;;;8.60;2.55;;;;;;;;;;5076458;28;20114;-61
2023/03/23 11:48:38;;;;;;;6.53;2.10;;;;;;;;;;5076030;28;20072;-62
2023/03/23 11:51:17;;;;;;;9.15;1.92;;;;;;;;;;5063820;28;20053;-62
2023/03/23 11:53:43;;;;;;;6.78;1.90;;;;;;;;;;5062216;28;20119;-60
2023/03/23 11:56:15;;;;;;;6.88;2.72;;;;;;;;;;5063262;28;20622;-59
2023/03/23 11:58:40;;;;;;;6.43;2.10;;;;;;;;;;5062077;28;20096;-60
2023/03/23 12:01:12;;;;;;;10.98;2.78;;;;;;;;;;5062703;28;20131;-60
2023/03/23 12:03:40;;;;;;;8.95;2.22;;;;;;;;;;5064002;28;20082;-61
2023/03/23 12:06:07;;;;;;;11.38;2.30;;;;;;;;;;5062812;28;20566;-60
2023/03/23 12:08:33;;;;;;;10.52;2.05;;;;;;;;;;5063435;28;20047;-60
2023/03/23 12:11:15;;;;;;;9.77;1.95;;;;;;;;;;5063680;28;20407;-60
2023/03/23 12:13:52;;;;;;;9.40;2.10;;;;;;;;;;5057981;28;20468;-60
2023/03/23 12:16:22;;;;;;;10.27;2.30;;;;;;;;;;5067858;28;20538;-61
2023/03/23 12:18:48;;;;;;;11.82;2.17;;;;;;;;;;5073501;28;20095;-60
2023/03/23 12:21:15;;;;;;;7.18;2.13;;;;;;;;;;5082516;28;20041;-61
2023/03/23 12:23:48;;;;;;;10.98;2.85;;;;;;;;;;5073578;28;20136;-60
2023/03/23 12:26:19;;;;;;;18.55;3.47;;;;;;;;;;5072277;28;20097;-60
2023/03/23 12:28:54;;;;;;;11.23;2.17;;;;;;;;;;5077584;28;20115;-61
2023/03/23 12:31:30;;;;;;;11.83;3.50;;;;;;;;;;5060636;28;20135;-59
2023/03/23 12:34:05;;;;;;;8.48;2.05;;;;;;;;;;5069447;28;20045;-60
2023/03/23 12:36:50;;;;;;;9.25;2.58;;;;;;;;;;5084044;28;20048;-60
2023/03/23 12:39:32;;;;;;;7.38;2.17;;;;;;;;;;5066006;28;20050;-61
2023/03/23 12:42:07;;;;;;;8.65;2.45;;;;;;;;;;5070005;28;20040;-60
2023/03/23 12:44:43;;;;;;;9.70;2.47;;;;;;;;;;5074057;28;20135;-60
2023/03/23 12:47:27;;;;;;;9.40;1.83;;;;;;;;;;5060278;28;20056;-59
2023/03/23 12:49:55;;;;;;;9.45;2.13;;;;;;;;;;5062783;28;20053;-60
2023/03/23 12:52:28;;;;;;;10.63;2.40;;;;;;;;;;5061995;28;20088;-61
2023/03/23 12:54:58;;;;;;;8.13;2.22;;;;;;;;;;5076681;28;20140;-59
2023/03/23 12:57:27;;;;;;;11.88;2.65;;;;;;;;;;5048579;28;20061;-60
2023/03/23 13:00:12;;;;;;;7.95;3.05;;;;;;;;;;5055440;28;20095;-60
2023/03/23 13:02:40;;;;;;;7.28;1.80;;;;;;;;;;5042274;28;20072;-60
2023/03/23 13:05:26;;;;;;;5.00;1.52;;;;;;;;;;5057125;28;20540;-60
2023/03/23 13:07:51;;;;;;;;;;;;;;;;;;5061043;28;20290;-60
2023/03/23 13:10:19;;;;;;;;;;;;;;;;;;5061910;28;20044;-59
2023/03/23 13:12:45;;;;;;;6.13;1.63;;;;;;;;;;5080605;28;19932;-60
2023/03/23 13:15:10;;;;;;;8.18;1.80;;;;;;;;;;5080706;28;20670;-60
2023/03/23 13:17:42;;;;;;;10.40;2.10;;;;;;;;;;5081297;28;20060;-60
2023/03/23 13:20:26;;;;;;;6.00;1.85;;;;;;;;;;5079676;28;20048;-60
2023/03/23 13:22:54;;;;;;;11.13;4.85;;;;;;;;;;5082179;28;20416;-59
2023/03/23 13:25:30;;;;;;;8.90;3.25;;;;;;;;;;5061988;28;20045;-61
2023/03/23 13:27:56;;;;;;;6.80;1.55;;;;;;;;;;5080190;28;20057;-62
2023/03/23 13:30:24;;;;;;;6.20;2.00;;;;;;;;;;5070951;28;20099;-60
2023/03/23 13:32:50;;;;;;;4.60;1.55;;;;;;;;;;5077477;28;20056;-61
2023/03/23 13:35:17;;;;;;;4.38;1.58;;;;;;;;;;5067012;28;20041;-60
2023/03/23 13:37:46;;;;;;;10.20;2.17;;;;;;;;;;5061037;28;20493;-60
2023/03/23 13:40:12;;;;;;;9.93;2.45;;;;;;;;;;5061030;28;20053;-60
2023/03/23 13:42:49;;;;;;;6.68;2.00;;;;;;;;;;5062730;28;20053;-61
2023/03/23 13:45:17;;;;;;;5.28;1.40;;;;;;;;;;5060950;28;20057;-60
2023/03/23 13:47:44;;;;;;;9.13;1.90;;;;;;;;;;5062335;28;20052;-61
2023/03/23 13:50:26;;;;;;;8.70;2.10;;;;;;;;;;5061343;28;20553;-59
2023/03/23 13:52:53;;;;;;;8.93;2.03;;;;;;;;;;5070917;28;20554;-61
2023/03/23 13:55:21;;;;;;;14.80;2.13;;;;;;;;;;5055036;28;20053;-62
2023/03/23 13:57:56;;;;;;;7.30;1.67;;;;;;;;;;5051055;28;20059;-60
2023/03/23 14:00:24;;;;;;;10.33;2.57;;;;;;;;;;5070318;28;20563;-60
2023/03/23 14:02:50;;;;;;;5.75;1.50;;;;;;;;;;5062023;28;21525;-60
2023/03/23 14:05:19;;;;;;;8.88;1.63;;;;;;;;;;5062508;28;20056;-60
2023/03/23 14:07:59;;;;;;;130.95;52.95;;;;;;;;;;5061971;28;20843;-60
2023/03/23 14:10:30;;;;;;;295.90;105.70;;;;;;;;;;5052549;28;20056;-60
2023/03/23 14:12:58;;;;;;;7.60;2.10;;;;;;;;;;5049983;28;20523;-62
2023/03/23 14:15:27;;;;;;;8.20;2.55;;;;;;;;;;5065897;28;20083;-61
2023/03/23 14:17:53;;;;;;;6.22;2.28;;;;;;;;;;5071810;28;20053;-59
2023/03/23 14:20:26;;;;;;;8.73;2.00;;;;;;;;;;5051305;28;20160;-61
2023/03/23 14:22:55;;;;;;;6.07;2.10;;;;;;;;;;5060089;28;20347;-61
2023/03/23 14:25:21;;;;;;;7.82;1.80;;;;;;;;;;5060770;28;20055;-60
2023/03/23 14:27:46;;;;;;;4.43;1.83;;;;;;;;;;5063380;28;20059;-60
2023/03/23 14:30:16;;;;;;;7.45;3.60;;;;;;;;;;5054311;28;20057;-60
2023/03/23 14:32:42;;;;;;;5.95;2.67;;;;;;;;;;5065724;28;20057;-59
2023/03/23 14:35:12;;;;;;;6.07;2.13;;;;;;;;;;5060601;28;20610;-60
2023/03/23 14:37:37;;;;;;;13.18;2.65;;;;;;;;;;5063524;28;20053;-60
2023/03/23 14:40:06;;;;;;;8.55;2.38;;;;;;;;;;5070216;28;20057;-60
2023/03/23 14:42:33;;;;;;;6.95;2.03;;;;;;;;;;5072908;28;20188;-59
2023/03/23 14:44:59;;;;;;;9.10;2.55;;;;;;;;;;5063544;28;20052;-60
2023/03/23 14:47:51;;;;;;;6.60;2.10;;;;;;;;;;5062561;28;20115;-61